Time;durP1;ratioP1;P1;durP2;ratioP2;P2;SDS_P1;SDS_P2;PMS_P1;PMS_P2;Temp;Humidity;BMP_temperature;BMP_pressure;BME280_temperature;BME280_humidity;BME280_pressure;Samples;Min_cycle;Max_cycle;Signal;HPM_P1;HPM_P2
2022/07/12 00:01:02;;;;;;;2.40;1.60;;;15.20;99.90;;;;;;5012743;28;20910;-76
2022/07/12 00:03:31;;;;;;;1.57;1.47;;;15.30;99.90;;;;;;5012313;28;20560;-75
2022/07/12 00:05:56;;;;;;;1.60;1.50;;;15.30;99.90;;;;;;5012466;28;20169;-76
2022/07/12 00:08:23;;;;;;;2.10;1.63;;;15.30;99.90;;;;;;5013062;28;20873;-75
2022/07/12 00:10:48;;;;;;;1.93;1.73;;;15.30;99.90;;;;;;5016191;28;20458;-75
2022/07/12 00:13:15;;;;;;;4.70;1.47;;;15.20;99.90;;;;;;5016745;28;20539;-75
2022/07/12 00:15:41;;;;;;;1.57;1.47;;;15.10;99.90;;;;;;5016279;28;20643;-76
2022/07/12 00:18:07;;;;;;;1.23;1.13;;;15.00;99.90;;;;;;5015889;28;20414;-75
2022/07/12 00:20:33;;;;;;;3.27;1.70;;;14.90;99.90;;;;;;5015652;28;20414;-76
2022/07/12 00:22:58;;;;;;;2.33;1.20;;;14.80;99.90;;;;;;5015896;28;20926;-76
2022/07/12 00:25:25;;;;;;;2.10;1.53;;;14.80;99.90;;;;;;5015723;28;20168;-76
2022/07/12 00:27:51;;;;;;;1.50;1.13;;;14.80;99.90;;;;;;5015047;28;20168;-76
2022/07/12 00:30:17;;;;;;;2.50;1.73;;;14.80;99.90;;;;;;5015741;28;20460;-76
2022/07/12 00:32:43;;;;;;;3.70;1.40;;;14.80;99.90;;;;;;5015399;28;20437;-76
2022/07/12 00:35:08;;;;;;;1.57;1.43;;;14.70;99.90;;;;;;5015291;28;20168;-76
2022/07/12 00:37:34;;;;;;;1.63;1.53;;;14.60;99.90;;;;;;5015988;28;20169;-76
2022/07/12 00:39:59;;;;;;;2.70;1.60;;;14.70;99.90;;;;;;5015521;28;20168;-76
2022/07/12 00:42:26;;;;;;;2.07;1.40;;;14.70;99.90;;;;;;5015137;28;20197;-76
2022/07/12 00:44:52;;;;;;;2.10;1.30;;;14.60;99.90;;;;;;5014569;28;20179;-76
2022/07/12 00:47:45;;;;;;;3.23;2.00;;;14.60;99.90;;;;;;5015597;28;20430;-77
2022/07/12 00:50:16;;;;;;;3.40;1.60;;;14.60;99.90;;;;;;5009538;28;20259;-76
2022/07/12 00:52:44;;;;;;;7.47;1.83;;;14.50;99.90;;;;;;5014895;28;20432;-76
2022/07/12 00:55:10;;;;;;;2.67;1.53;;;14.50;99.90;;;;;;5013951;28;20947;-76
2022/07/12 00:57:38;;;;;;;1.73;1.50;;;14.50;99.90;;;;;;5012701;28;20562;-75
2022/07/12 01:00:07;;;;;;;2.93;1.53;;;14.50;99.90;;;;;;5013886;28;20407;-75
2022/07/12 01:02:35;;;;;;;1.63;1.40;;;14.50;99.90;;;;;;5012568;28;20431;-75
2022/07/12 01:05:02;;;;;;;1.70;1.60;;;14.50;99.90;;;;;;5013927;28;20422;-76
2022/07/12 01:07:28;;;;;;;2.40;1.57;;;14.60;99.90;;;;;;5013698;28;20411;-76
2022/07/12 01:09:54;;;;;;;2.47;1.53;;;14.70;99.90;;;;;;5013767;28;20505;-75
2022/07/12 01:12:21;;;;;;;4.73;2.30;;;14.50;99.90;;;;;;5013741;28;20191;-74
2022/07/12 01:14:48;;;;;;;2.33;1.40;;;14.40;99.90;;;;;;5013738;28;20403;-75
2022/07/12 01:17:14;;;;;;;2.07;1.80;;;14.40;99.90;;;;;;5013791;28;20403;-75
2022/07/12 01:19:40;;;;;;;1.77;1.67;;;14.40;99.90;;;;;;5013578;28;20906;-74
2022/07/12 01:22:09;;;;;;;3.00;2.00;;;14.30;99.90;;;;;;5014060;28;20176;-75
2022/07/12 01:24:35;;;;;;;1.23;1.13;;;14.30;99.90;;;;;;5013917;28;20937;-75
2022/07/12 01:27:06;;;;;;;2.20;1.60;;;14.20;99.90;;;;;;5016689;28;20400;-75
2022/07/12 01:29:32;;;;;;;1.63;1.53;;;14.20;99.90;;;;;;5021973;28;20458;-75
2022/07/12 01:32:24;;;;;;;2.83;1.67;;;14.20;99.90;;;;;;5018334;28;20411;-77
2022/07/12 01:34:48;;;;;;;2.03;1.77;;;14.10;99.90;;;;;;5016881;28;20195;-75
2022/07/12 01:37:14;;;;;;;2.10;2.00;;;14.10;99.90;;;;;;5016093;28;20798;-75
2022/07/12 01:39:41;;;;;;;2.53;1.97;;;14.00;99.90;;;;;;5012026;28;20469;-75
2022/07/12 01:42:06;;;;;;;1.93;1.30;;;14.10;99.90;;;;;;5013734;28;20418;-75
2022/07/12 01:44:32;;;;;;;2.60;1.87;;;14.10;99.90;;;;;;5013095;28;20411;-74
2022/07/12 01:46:58;;;;;;;3.07;1.37;;;14.00;99.90;;;;;;5013374;28;20539;-74
2022/07/12 01:49:24;;;;;;;2.00;1.63;;;14.00;99.90;;;;;;5013277;28;20434;-75
2022/07/12 01:51:50;;;;;;;2.67;1.57;;;13.90;99.90;;;;;;5012783;28;20404;-75
2022/07/12 01:54:15;;;;;;;3.17;1.73;;;13.90;99.90;;;;;;5012696;28;20283;-75
2022/07/12 01:56:41;;;;;;;2.00;1.80;;;13.80;99.90;;;;;;5012962;28;20196;-76
2022/07/12 01:59:07;;;;;;;8.57;1.80;;;13.80;99.90;;;;;;5012936;28;20542;-75
2022/07/12 02:01:35;;;;;;;1.87;1.67;;;13.80;99.90;;;;;;5013987;28;20910;-74
2022/07/12 02:04:05;;;;;;;1.40;1.30;;;13.80;99.90;;;;;;5012068;28;20215;-75
2022/07/12 02:06:30;;;;;;;5.40;2.57;;;13.70;99.90;;;;;;5012866;28;20407;-75
2022/07/12 02:08:56;;;;;;;2.43;2.00;;;13.70;99.90;;;;;;5012769;28;20961;-75
2022/07/12 02:11:22;;;;;;;1.73;1.63;;;13.60;99.90;;;;;;5011492;28;20211;-75
2022/07/12 02:13:47;;;;;;;3.50;1.70;;;13.60;99.90;;;;;;5013009;28;20524;-75
2022/07/12 02:16:13;;;;;;;2.03;1.50;;;13.60;99.90;;;;;;5012661;28;20160;-75
2022/07/12 02:18:39;;;;;;;1.80;1.70;;;13.60;99.90;;;;;;5012759;28;20251;-75
2022/07/12 02:21:04;;;;;;;2.10;1.43;;;13.60;99.90;;;;;;5013240;28;20171;-75
2022/07/12 02:23:30;;;;;;;3.10;1.90;;;13.60;99.90;;;;;;5012629;28;20192;-75
2022/07/12 02:25:55;;;;;;;3.33;1.73;;;13.50;99.90;;;;;;5012405;28;20173;-75
2022/07/12 02:28:21;;;;;;;3.10;1.80;;;13.50;99.90;;;;;;5012275;28;20244;-75
2022/07/12 02:30:46;;;;;;;2.90;1.57;;;13.40;99.90;;;;;;5011802;28;20304;-74
2022/07/12 02:33:15;;;;;;;3.73;1.70;;;13.40;99.90;;;;;;5011960;28;20192;-74
2022/07/12 02:35:41;;;;;;;1.53;1.40;;;13.40;99.90;;;;;;5012441;28;20173;-75
2022/07/12 02:38:07;;;;;;;1.50;1.40;;;13.40;99.90;;;;;;5012424;28;20411;-76
2022/07/12 02:43:16;;;;;;;2.67;1.47;;;13.30;99.90;;;;;;5012759;28;20266;-75
2022/07/12 02:45:42;;;;;;;1.83;1.60;;;13.30;99.90;;;;;;5012238;28;20898;-75
2022/07/12 02:48:10;;;;;;;2.07;1.67;;;13.30;99.90;;;;;;5011054;28;20172;-75
2022/07/12 02:50:37;;;;;;;1.93;1.73;;;13.20;99.90;;;;;;5012229;28;20196;-76
2022/07/12 02:53:03;;;;;;;3.33;2.20;;;13.20;99.90;;;;;;5012359;28;20481;-75
2022/07/12 02:55:28;;;;;;;1.60;1.50;;;13.20;99.90;;;;;;5012059;28;20408;-75
2022/07/12 02:57:54;;;;;;;4.07;1.57;;;13.20;99.90;;;;;;5012113;28;20540;-75
2022/07/12 03:00:20;;;;;;;1.83;1.40;;;13.30;99.90;;;;;;5012318;28;20335;-75
2022/07/12 03:02:46;;;;;;;2.70;1.90;;;13.20;99.90;;;;;;5012588;28;20192;-75
2022/07/12 03:05:11;;;;;;;2.60;1.50;;;13.20;99.90;;;;;;5014289;28;20415;-75
2022/07/12 03:07:37;;;;;;;1.97;1.53;;;13.20;99.90;;;;;;5014006;28;20179;-76
2022/07/12 03:10:04;;;;;;;2.80;2.00;;;13.20;99.90;;;;;;5015395;28;20683;-75
2022/07/12 03:12:29;;;;;;;1.70;1.57;;;13.20;99.90;;;;;;5017291;28;20234;-76
2022/07/12 03:14:55;;;;;;;1.30;1.20;;;13.20;99.90;;;;;;5016848;28;20403;-75
2022/07/12 03:17:21;;;;;;;1.47;1.20;;;13.30;99.90;;;;;;5019532;28;20198;-75
2022/07/12 03:19:46;;;;;;;4.70;1.60;;;13.30;99.90;;;;;;5014206;28;20263;-75
2022/07/12 03:22:12;;;;;;;2.17;1.40;;;13.40;99.90;;;;;;5012521;28;20179;-75
2022/07/12 03:24:37;;;;;;;2.07;1.67;;;13.40;99.90;;;;;;5014511;28;20251;-77
2022/07/12 03:27:03;;;;;;;2.57;1.57;;;13.50;99.90;;;;;;5013658;28;20204;-76
2022/07/12 03:29:29;;;;;;;1.50;1.40;;;13.50;99.90;;;;;;5016230;28;20187;-76
2022/07/12 03:31:54;;;;;;;3.63;1.63;;;13.70;99.90;;;;;;5012286;28;20184;-76
2022/07/12 03:34:20;;;;;;;1.83;1.10;;;13.70;99.90;;;;;;5011916;28;20282;-75
2022/07/12 03:36:46;;;;;;;2.23;1.23;;;13.70;99.90;;;;;;5010665;28;20176;-75
2022/07/12 03:39:11;;;;;;;2.10;1.47;;;13.70;99.90;;;;;;5012438;28;20176;-75
2022/07/12 03:41:37;;;;;;;1.47;1.30;;;13.80;99.90;;;;;;5011977;28;20580;-76
2022/07/12 03:44:03;;;;;;;1.70;1.50;;;13.70;99.90;;;;;;5015062;28;20210;-75
2022/07/12 03:46:29;;;;;;;2.67;1.40;;;13.70;99.90;;;;;;5015669;28;20414;-76
2022/07/12 03:48:54;;;;;;;1.97;1.20;;;13.70;99.90;;;;;;5015786;28;20407;-76
2022/07/12 03:51:20;;;;;;;1.80;1.20;;;13.80;99.90;;;;;;5015507;28;20322;-76
2022/07/12 03:53:46;;;;;;;1.40;1.30;;;13.90;99.90;;;;;;5015661;28;20573;-76
2022/07/12 03:57:13;;;;;;;1.23;1.10;;;13.80;99.90;;;;;;5015602;28;20230;-75
2022/07/12 03:58:57;;;;;;;2.37;1.40;;;13.80;99.90;;;;;;5015495;28;20242;-75
2022/07/12 04:01:22;;;;;;;1.40;1.30;;;13.80;99.90;;;;;;5015650;28;20427;-76
2022/07/12 04:03:48;;;;;;;2.20;1.20;;;13.80;99.90;;;;;;5015692;28;20188;-76
2022/07/12 04:06:13;;;;;;;3.00;1.40;;;13.80;99.90;;;;;;5015487;28;20187;-76
2022/07/12 04:08:39;;;;;;;1.13;1.03;;;13.80;99.90;;;;;;5015465;28;20212;-75
2022/07/12 04:11:05;;;;;;;4.70;2.20;;;13.90;99.90;;;;;;5015412;28;20203;-76
2022/07/12 04:13:31;;;;;;;3.07;1.87;;;13.90;99.90;;;;;;5015377;28;20192;-77
2022/07/12 04:15:58;;;;;;;2.00;1.53;;;14.00;99.90;;;;;;5015438;28;20398;-77
2022/07/12 04:18:24;;;;;;;2.03;1.77;;;14.00;99.90;;;;;;5015499;28;20407;-76
2022/07/12 04:20:49;;;;;;;2.43;1.67;;;14.10;99.90;;;;;;5015263;28;20541;-76
2022/07/12 04:23:15;;;;;;;1.20;1.10;;;14.10;99.90;;;;;;5014709;28;20618;-76
2022/07/12 04:25:41;;;;;;;2.40;1.43;;;14.30;99.90;;;;;;5014385;28;20173;-76
2022/07/12 04:28:06;;;;;;;1.57;1.20;;;14.50;99.90;;;;;;5014846;28;20180;-74
2022/07/12 04:30:32;;;;;;;1.27;1.07;;;15.50;99.90;;;;;;5014756;28;20254;-75
2022/07/12 04:32:57;;;;;;;1.33;1.23;;;16.60;99.90;;;;;;5013190;28;20607;-74
2022/07/12 04:35:23;;;;;;;3.80;1.30;;;17.40;99.90;;;;;;5014501;28;20259;-75
2022/07/12 04:37:48;;;;;;;2.30;1.20;;;17.90;99.90;;;;;;5014787;28;20175;-75
2022/07/12 04:40:14;;;;;;;1.43;1.03;;;18.40;99.90;;;;;;5014666;28;20197;-74
2022/07/12 04:42:40;;;;;;;3.57;1.10;;;19.00;99.90;;;;;;5014535;28;20565;-75
2022/07/12 04:45:06;;;;;;;2.37;1.40;;;19.00;99.90;;;;;;5014445;28;20180;-74
2022/07/12 04:47:34;;;;;;;1.40;1.30;;;19.30;99.90;;;;;;5014356;28;20170;-75
2022/07/12 04:50:02;;;;;;;1.40;1.00;;;19.20;99.90;;;;;;5014711;28;20742;-75
2022/07/12 04:52:28;;;;;;;1.90;1.10;;;19.00;99.90;;;;;;5014375;28;20436;-74
2022/07/12 04:54:53;;;;;;;1.50;1.20;;;18.70;99.90;;;;;;5014017;28;20456;-74
2022/07/12 04:57:19;;;;;;;1.20;1.10;;;18.30;99.90;;;;;;5014988;28;20245;-75
2022/07/12 04:59:45;;;;;;;2.23;1.10;;;18.50;99.90;;;;;;5014437;28;20173;-74
2022/07/12 05:02:10;;;;;;;1.00;0.80;;;18.80;99.90;;;;;;5015039;28;20842;-75
2022/07/12 05:04:36;;;;;;;2.07;1.10;;;19.30;99.90;;;;;;5015685;28;20312;-75
2022/07/12 05:07:01;;;;;;;1.30;1.13;;;19.90;99.90;;;;;;5014955;28;20321;-76
2022/07/12 05:09:27;;;;;;;1.63;1.00;;;20.00;99.90;;;;;;5014654;28;20225;-76
2022/07/12 05:11:52;;;;;;;2.70;1.07;;;20.60;99.90;;;;;;5014873;28;20172;-76
2022/07/12 05:14:18;;;;;;;1.07;0.93;;;20.60;99.90;;;;;;5014685;28;20558;-76
2022/07/12 05:16:44;;;;;;;2.00;1.07;;;21.20;99.90;;;;;;5015390;28;20635;-76
2022/07/12 05:19:09;;;;;;;0.90;0.80;;;21.10;99.90;;;;;;5016146;28;20168;-76
2022/07/12 05:21:35;;;;;;;2.80;1.07;;;21.30;99.90;;;;;;5015431;28;20545;-76
2022/07/12 05:24:03;;;;;;;1.23;0.90;;;21.10;99.90;;;;;;5014301;28;20608;-75
2022/07/12 05:26:29;;;;;;;0.97;0.70;;;21.50;99.90;;;;;;5014591;28;20175;-75
2022/07/12 05:28:55;;;;;;;1.40;0.80;;;21.40;99.90;;;;;;5014333;28;20448;-75
2022/07/12 05:31:20;;;;;;;1.87;0.90;;;22.00;99.90;;;;;;5014089;28;20466;-75
2022/07/12 05:33:46;;;;;;;0.80;0.80;;;21.40;99.90;;;;;;5014202;28;20223;-75
2022/07/12 05:36:11;;;;;;;1.37;0.73;;;21.80;99.90;;;;;;5014191;28;20176;-75
2022/07/12 05:38:37;;;;;;;1.30;0.90;;;21.80;99.90;;;;;;5013992;28;20184;-75
2022/07/12 05:41:02;;;;;;;2.23;0.93;;;22.30;98.00;;;;;;5014138;28;20520;-75
2022/07/12 05:43:28;;;;;;;1.00;0.70;;;21.80;98.50;;;;;;5013978;28;20198;-75
2022/07/12 05:45:55;;;;;;;1.67;0.80;;;22.80;98.00;;;;;;5013749;28;20176;-75
2022/07/12 05:48:21;;;;;;;0.90;0.70;;;23.20;96.20;;;;;;5014110;28;20168;-75
2022/07/12 05:50:46;;;;;;;1.07;0.90;;;23.60;95.70;;;;;;5013899;28;20476;-75
2022/07/12 05:53:24;;;;;;;1.73;0.80;;;23.90;94.80;;;;;;5013792;28;20619;-75
2022/07/12 05:55:51;;;;;;;1.43;0.80;;;23.90;93.30;;;;;;5014003;28;20550;-75
2022/07/12 05:58:18;;;;;;;1.10;1.00;;;23.30;93.10;;;;;;5014348;28;20410;-74
2022/07/12 06:00:44;;;;;;;1.23;0.90;;;23.40;93.60;;;;;;5015429;28;20411;-74
2022/07/12 06:03:10;;;;;;;1.20;0.77;;;23.80;95.10;;;;;;5014866;28;20442;-74
2022/07/12 06:05:35;;;;;;;0.87;0.70;;;24.20;92.30;;;;;;5012074;28;20195;-75
2022/07/12 06:08:01;;;;;;;2.20;0.80;;;23.20;93.70;;;;;;5013647;28;20441;-76
2022/07/12 06:10:27;;;;;;;1.60;1.00;;;24.00;93.10;;;;;;5012385;28;20229;-74
2022/07/12 06:12:53;;;;;;;0.90;0.80;;;25.00;91.90;;;;;;5013311;28;20929;-75
2022/07/12 06:15:19;;;;;;;1.10;0.80;;;23.90;90.80;;;;;;5013360;28;20641;-75
2022/07/12 06:17:44;;;;;;;1.90;0.97;;;25.10;91.90;;;;;;5013965;28;20176;-76
2022/07/12 06:20:11;;;;;;;0.93;0.80;;;25.60;90.70;;;;;;5016716;28;20265;-76
2022/07/12 06:22:36;;;;;;;2.17;1.00;;;25.60;89.70;;;;;;5014462;28;20787;-76
2022/07/12 06:25:02;;;;;;;0.93;0.83;;;25.80;88.80;;;;;;5013398;28;20483;-76
2022/07/12 06:27:28;;;;;;;1.63;0.87;;;26.10;86.40;;;;;;5016635;28;20558;-77
2022/07/12 06:29:53;;;;;;;0.70;0.70;;;25.80;88.10;;;;;;5015856;28;20200;-75
2022/07/12 06:32:19;;;;;;;0.77;0.73;;;25.60;86.60;;;;;;5013380;28;20180;-75
2022/07/12 06:34:45;;;;;;;0.77;0.63;;;24.90;87.50;;;;;;5013267;28;20165;-75
2022/07/12 06:37:12;;;;;;;1.07;0.93;;;24.80;87.80;;;;;;5013788;28;20169;-76
2022/07/12 06:39:38;;;;;;;1.27;0.80;;;25.70;87.00;;;;;;5014718;28;20160;-75
2022/07/12 06:42:04;;;;;;;0.83;0.73;;;26.00;85.10;;;;;;5013511;28;20578;-74
2022/07/12 06:44:30;;;;;;;0.90;0.80;;;24.60;87.30;;;;;;5013415;28;20250;-74
2022/07/12 06:46:56;;;;;;;1.20;0.90;;;26.20;84.60;;;;;;5012552;28;20423;-74
2022/07/12 06:49:22;;;;;;;1.40;0.90;;;26.50;84.10;;;;;;5014516;28;20430;-74
2022/07/12 06:51:48;;;;;;;1.07;0.97;;;26.30;85.30;;;;;;5019520;28;20172;-75
2022/07/12 06:54:13;;;;;;;2.73;1.33;;;26.20;83.60;;;;;;5014446;28;20662;-80
2022/07/12 06:56:39;;;;;;;1.00;0.90;;;26.00;84.80;;;;;;5014401;28;20176;-75
2022/07/12 06:59:04;;;;;;;1.70;1.27;;;27.00;81.90;;;;;;5014216;28;20171;-76
2022/07/12 07:01:30;;;;;;;2.50;0.90;;;27.60;80.80;;;;;;5014073;28;20255;-75
2022/07/12 07:03:55;;;;;;;1.80;1.10;;;28.40;77.00;;;;;;5014018;28;20567;-76
2022/07/12 07:06:21;;;;;;;1.53;0.90;;;28.00;77.20;;;;;;5013831;28;20254;-75
2022/07/12 07:08:46;;;;;;;0.90;0.70;;;27.30;77.70;;;;;;5013517;28;20172;-75
2022/07/12 07:11:12;;;;;;;1.30;1.10;;;26.70;78.00;;;;;;5014388;28;20611;-76
2022/07/12 07:13:38;;;;;;;1.37;0.93;;;26.70;81.00;;;;;;5013179;28;20198;-75
2022/07/12 07:16:05;;;;;;;0.90;0.80;;;27.70;77.50;;;;;;5013725;28;20171;-71
2022/07/12 07:18:30;;;;;;;1.50;0.83;;;27.90;77.50;;;;;;5012532;28;20200;-74
2022/07/12 07:20:56;;;;;;;1.83;0.97;;;29.10;74.30;;;;;;5013481;28;20446;-75
2022/07/12 07:23:21;;;;;;;2.60;1.10;;;29.30;74.20;;;;;;5012909;28;20184;-75
2022/07/12 07:25:47;;;;;;;1.17;0.80;;;29.50;71.80;;;;;;5012904;28;20172;-75
2022/07/12 07:28:13;;;;;;;1.10;0.97;;;28.80;71.70;;;;;;5013301;28;20256;-75
2022/07/12 07:30:54;;;;;;;2.33;0.90;;;28.30;74.20;;;;;;5013787;28;20537;-76
2022/07/12 07:33:24;;;;;;;1.23;0.77;;;27.00;77.80;;;;;;5013804;28;20192;-76
2022/07/12 07:35:51;;;;;;;2.80;1.10;;;28.40;75.80;;;;;;5012453;28;20421;-76
2022/07/12 07:38:17;;;;;;;1.27;1.00;;;29.00;72.00;;;;;;5012277;28;20461;-75
2022/07/12 07:40:43;;;;;;;1.17;0.80;;;29.10;73.00;;;;;;5012609;28;20522;-76
2022/07/12 07:43:09;;;;;;;1.70;0.83;;;28.00;72.20;;;;;;5012722;28;20945;-76
2022/07/12 07:45:34;;;;;;;2.03;1.00;;;28.20;71.70;;;;;;5011915;28;20570;-74
2022/07/12 07:48:00;;;;;;;1.53;1.43;;;29.10;71.90;;;;;;5012398;28;20164;-76
2022/07/12 07:50:26;;;;;;;3.27;1.30;;;27.60;76.20;;;;;;5012530;28;20211;-74
2022/07/12 07:52:52;;;;;;;2.40;2.17;;;26.20;79.00;;;;;;5012219;28;20230;-72
2022/07/12 07:55:18;;;;;;;3.27;1.73;;;27.30;78.10;;;;;;5011932;28;20918;-73
2022/07/12 07:57:43;;;;;;;3.90;1.20;;;26.80;76.30;;;;;;5011997;28;20167;-73
2022/07/12 08:00:10;;;;;;;3.03;2.20;;;28.30;73.90;;;;;;5011926;28;20935;-73
2022/07/12 08:02:36;;;;;;;2.40;1.00;;;28.10;73.50;;;;;;5011920;28;20184;-73
2022/07/12 08:05:02;;;;;;;1.87;0.90;;;27.30;71.50;;;;;;5012236;28;20414;-73
2022/07/12 08:07:27;;;;;;;1.17;1.07;;;26.30;76.20;;;;;;5012519;28;20180;-72
2022/07/12 08:09:53;;;;;;;3.07;1.93;;;26.80;75.00;;;;;;5008049;28;20549;-72
2022/07/12 08:12:19;;;;;;;2.27;1.83;;;27.90;72.40;;;;;;5012254;28;20172;-73
2022/07/12 08:14:44;;;;;;;0.90;0.80;;;29.10;68.50;;;;;;5011513;28;20167;-73
2022/07/12 08:17:10;;;;;;;2.57;0.93;;;28.40;69.20;;;;;;5011929;28;20169;-72
2022/07/12 08:19:35;;;;;;;1.40;0.90;;;28.70;70.40;;;;;;5011900;28;20168;-72
2022/07/12 08:22:01;;;;;;;1.20;1.00;;;28.20;72.10;;;;;;5011739;28;20168;-72
2022/07/12 08:24:26;;;;;;;1.30;1.20;;;27.50;72.70;;;;;;5011828;28;20187;-73
2022/07/12 08:26:52;;;;;;;1.40;0.90;;;27.30;73.50;;;;;;5011915;28;20200;-73
2022/07/12 08:29:17;;;;;;;2.40;1.47;;;27.80;73.80;;;;;;5012605;28;20164;-73
2022/07/12 08:31:43;;;;;;;1.00;0.90;;;28.90;70.20;;;;;;5015507;28;20204;-73
2022/07/12 08:34:09;;;;;;;3.30;1.27;;;30.10;66.60;;;;;;5016271;28;20722;-73
2022/07/12 08:36:34;;;;;;;1.37;1.20;;;28.30;69.10;;;;;;5017878;28;20175;-72
2022/07/12 08:39:00;;;;;;;1.57;0.90;;;27.90;69.90;;;;;;5017168;28;20162;-73
2022/07/12 08:41:26;;;;;;;0.87;0.70;;;27.80;68.00;;;;;;5015219;28;20180;-72
2022/07/12 08:43:51;;;;;;;1.20;1.10;;;28.40;66.50;;;;;;5014921;28;20650;-72
2022/07/12 08:46:17;;;;;;;1.00;0.80;;;28.80;66.40;;;;;;5014440;28;20195;-73
2022/07/12 08:48:43;;;;;;;1.00;0.90;;;29.20;62.20;;;;;;5014938;28;20164;-71
2022/07/12 08:51:20;;;;;;;1.70;1.10;;;29.00;62.90;;;;;;5014589;28;20192;-71
2022/07/12 08:53:46;;;;;;;1.00;0.90;;;29.50;62.40;;;;;;5014507;28;20438;-71
2022/07/12 08:56:34;;;;;;;1.10;1.00;;;28.80;65.50;;;;;;5014422;28;20397;-70
2022/07/12 08:59:17;;;;;;;1.00;0.90;;;28.60;66.20;;;;;;5014580;28;20168;-69
2022/07/12 09:01:53;;;;;;;0.80;0.60;;;27.50;65.50;;;;;;5014373;28;20398;-69
2022/07/12 09:04:21;;;;;;;1.40;0.80;;;27.90;65.50;;;;;;5014466;28;20506;-70
2022/07/12 09:06:47;;;;;;;1.10;0.73;;;29.10;65.50;;;;;;5015281;28;20402;-75
2022/07/12 09:09:33;;;;;;;0.77;0.67;;;27.20;68.20;;;;;;5014385;28;20914;-76
2022/07/12 09:11:59;;;;;;;1.20;0.83;;;28.60;62.30;;;;;;5014875;28;20905;-75
2022/07/12 09:14:26;;;;;;;0.77;0.77;;;28.30;63.90;;;;;;5034084;28;20429;-76
2022/07/12 09:17:13;;;;;;;2.20;0.80;;;27.90;62.80;;;;;;5020772;28;20632;-75
2022/07/12 09:19:39;;;;;;;1.80;1.63;;;29.20;61.20;;;;;;5014332;28;20478;-76
2022/07/12 09:22:16;;;;;;;1.20;0.70;;;27.70;63.80;;;;;;5014823;28;20395;-75
2022/07/12 09:24:42;;;;;;;1.00;0.70;;;28.20;66.50;;;;;;5014064;28;20487;-75
2022/07/12 09:27:07;;;;;;;1.00;0.73;;;28.90;63.40;;;;;;5014346;28;20877;-75
2022/07/12 09:29:49;;;;;;;0.77;0.70;;;29.60;62.40;;;;;;5013932;28;20223;-75
2022/07/12 09:37:44;;;;;;;1.27;0.80;;;28.40;66.50;;;;;;5016433;28;20453;-74
2022/07/12 09:40:10;;;;;;;1.33;0.90;;;29.80;61.50;;;;;;5015956;28;20410;-74
2022/07/12 09:42:37;;;;;;;0.90;0.80;;;27.80;63.30;;;;;;5014953;28;20488;-75
2022/07/12 09:45:04;;;;;;;1.10;0.90;;;29.20;63.10;;;;;;5013349;28;20423;-75
2022/07/12 09:47:30;;;;;;;0.97;0.83;;;29.50;62.80;;;;;;5013699;28;20415;-75
2022/07/12 09:49:55;;;;;;;2.00;1.00;;;29.10;61.90;;;;;;5013787;28;20545;-75
2022/07/12 09:52:24;;;;;;;1.40;1.03;;;30.10;61.50;;;;;;5013238;28;20176;-75
2022/07/12 09:54:52;;;;;;;3.00;2.40;;;29.20;59.40;;;;;;5013444;28;20184;-75
2022/07/12 09:57:32;;;;;;;0.90;0.90;;;29.60;58.60;;;;;;5013462;28;20505;-75
2022/07/12 09:59:59;;;;;;;1.17;1.00;;;28.10;62.20;;;;;;5013453;28;20501;-75
2022/07/12 10:02:25;;;;;;;1.30;1.20;;;27.70;66.50;;;;;;5013384;28;20530;-75
2022/07/12 10:04:52;;;;;;;3.57;2.17;;;28.00;64.20;;;;;;5012847;28;20513;-74
2022/07/12 10:07:18;;;;;;;0.80;0.77;;;28.80;61.50;;;;;;5013083;28;20407;-75
2022/07/12 10:09:47;;;;;;;1.80;0.93;;;28.80;60.20;;;;;;5028805;28;20411;-74
2022/07/12 10:12:16;;;;;;;1.13;0.70;;;28.40;61.40;;;;;;5032743;28;20546;-75
2022/07/12 10:14:43;;;;;;;0.80;0.80;;;27.70;61.60;;;;;;5014952;28;20454;-75
2022/07/12 10:17:10;;;;;;;2.70;1.97;;;27.80;60.80;;;;;;5013276;28;20403;-75
2022/07/12 10:19:36;;;;;;;1.07;0.80;;;28.10;60.60;;;;;;5013211;28;20413;-76
2022/07/12 10:22:04;;;;;;;0.80;0.77;;;27.10;61.00;;;;;;5013447;28;20415;-74
2022/07/12 10:24:32;;;;;;;0.80;0.70;;;27.50;61.50;;;;;;5018044;28;20425;-75
2022/07/12 10:27:13;;;;;;;1.40;1.30;;;27.70;61.30;;;;;;5015557;28;20395;-76
2022/07/12 10:29:43;;;;;;;1.57;1.33;;;27.70;61.30;;;;;;5013177;28;20410;-75
2022/07/12 10:32:26;;;;;;;0.80;0.80;;;26.80;62.40;;;;;;5012762;28;20492;-74
2022/07/12 10:35:05;;;;;;;1.10;0.87;;;26.30;64.10;;;;;;5012883;28;20544;-76
2022/07/12 10:37:31;;;;;;;1.20;1.10;;;25.60;66.00;;;;;;5012866;28;20497;-74
2022/07/12 10:40:18;;;;;;;3.87;1.73;;;26.40;65.10;;;;;;5010416;28;20533;-75
2022/07/12 10:43:05;;;;;;;1.00;0.90;;;26.50;63.70;;;;;;5008307;28;20437;-76
2022/07/12 10:45:32;;;;;;;1.73;1.30;;;26.80;64.70;;;;;;5012145;28;20421;-75
2022/07/12 10:47:58;;;;;;;0.83;0.70;;;26.60;65.70;;;;;;5012706;28;20401;-75
2022/07/12 10:50:43;;;;;;;1.93;1.20;;;26.50;66.10;;;;;;5011327;28;20437;-75
2022/07/12 10:53:33;;;;;;;1.37;1.17;;;26.70;66.70;;;;;;5011185;28;20543;-75
2022/07/12 10:56:07;;;;;;;3.30;2.40;;;26.30;68.30;;;;;;5012139;28;20943;-75
2022/07/12 10:58:45;;;;;;;6.50;5.00;;;26.40;67.70;;;;;;5010923;28;20417;-75
2022/07/12 11:01:32;;;;;;;2.00;1.23;;;26.60;66.70;;;;;;5012207;28;20440;-75
2022/07/12 11:04:09;;;;;;;2.30;0.90;;;26.30;68.10;;;;;;5012323;28;20425;-75
2022/07/12 11:06:40;;;;;;;2.07;1.60;;;26.10;67.30;;;;;;5004852;28;20419;-74
2022/07/12 11:09:10;;;;;;;1.00;0.90;;;26.50;67.10;;;;;;4992685;28;20874;-74
2022/07/12 11:11:44;;;;;;;1.57;0.90;;;26.10;67.50;;;;;;5007266;28;20417;-75
2022/07/12 11:14:11;;;;;;;0.90;0.80;;;26.90;66.70;;;;;;5011998;28;20437;-75
2022/07/12 11:16:44;;;;;;;5.83;0.80;;;26.90;67.70;;;;;;5012001;28;20411;-76
2022/07/12 11:19:10;;;;;;;1.70;0.90;;;27.20;66.30;;;;;;5012045;28;20988;-75
2022/07/12 11:21:35;;;;;;;1.20;1.10;;;26.30;67.60;;;;;;5011696;28;20593;-75
2022/07/12 11:24:01;;;;;;;0.80;0.80;;;26.50;67.50;;;;;;5002058;28;20278;-76
2022/07/12 11:26:27;;;;;;;1.30;0.70;;;26.50;67.60;;;;;;5010679;28;20174;-76
2022/07/12 11:28:57;;;;;;;2.03;0.90;;;26.70;66.90;;;;;;5012447;28;20231;-75
2022/07/12 11:31:25;;;;;;;0.80;0.80;;;26.70;67.70;;;;;;5011896;28;20181;-69
2022/07/12 11:33:51;;;;;;;1.10;1.00;;;26.40;69.70;;;;;;5011674;28;20438;-70
2022/07/12 11:36:17;;;;;;;1.50;0.80;;;26.30;69.50;;;;;;5011564;28;20422;-71
2022/07/12 11:38:44;;;;;;;0.90;0.80;;;25.70;71.10;;;;;;5011728;28;20206;-75
2022/07/12 11:41:11;;;;;;;0.93;0.80;;;25.80;71.30;;;;;;5004873;28;20488;-70
2022/07/12 11:43:38;;;;;;;1.70;1.60;;;26.00;71.20;;;;;;5010799;28;20428;-69
2022/07/12 11:46:05;;;;;;;1.20;0.80;;;25.90;70.40;;;;;;5011239;28;20501;-70
2022/07/12 11:48:32;;;;;;;2.20;1.03;;;26.00;70.70;;;;;;5011526;28;20417;-70
2022/07/12 11:51:02;;;;;;;1.43;0.80;;;26.30;70.00;;;;;;5012505;28;20422;-75
2022/07/12 11:53:28;;;;;;;1.33;0.87;;;26.50;69.80;;;;;;5012335;28;20873;-75
2022/07/12 11:55:56;;;;;;;1.03;0.80;;;27.10;69.50;;;;;;5011571;28;20428;-74
2022/07/12 11:58:23;;;;;;;1.67;0.90;;;27.00;68.60;;;;;;5011774;28;20178;-74
2022/07/12 12:00:50;;;;;;;1.00;0.90;;;27.10;69.40;;;;;;5011049;28;20511;-74
2022/07/12 12:03:18;;;;;;;3.03;0.80;;;27.10;68.70;;;;;;5011767;28;20450;-74
2022/07/12 12:05:46;;;;;;;0.93;0.80;;;27.00;69.00;;;;;;5014157;28;20463;-75
2022/07/12 12:08:13;;;;;;;1.47;1.13;;;26.70;68.40;;;;;;5015810;28;20401;-75
2022/07/12 12:10:40;;;;;;;0.80;0.80;;;27.00;69.40;;;;;;5018607;28;20478;-75
2022/07/12 12:13:14;;;;;;;0.70;0.70;;;27.60;66.80;;;;;;5018691;28;20901;-75
2022/07/12 12:15:40;;;;;;;0.80;0.70;;;26.80;68.40;;;;;;5015257;28;20911;-74
2022/07/12 12:18:07;;;;;;;0.80;0.80;;;26.30;67.90;;;;;;5015064;28;20433;-74
2022/07/12 12:20:38;;;;;;;1.27;0.80;;;26.90;67.00;;;;;;5014825;28;20197;-74
2022/07/12 12:23:05;;;;;;;1.03;0.80;;;27.10;65.40;;;;;;5014899;28;20424;-75
2022/07/12 12:25:32;;;;;;;0.80;0.80;;;27.00;66.40;;;;;;5014770;28;20497;-74
2022/07/12 12:28:03;;;;;;;2.40;1.13;;;26.80;68.20;;;;;;5014848;28;20401;-75
2022/07/12 12:30:35;;;;;;;1.00;0.80;;;27.10;68.50;;;;;;5014528;28;20414;-74
2022/07/12 12:33:03;;;;;;;1.37;0.80;;;27.30;66.60;;;;;;5014501;28;20425;-75
2022/07/12 12:35:33;;;;;;;0.67;0.60;;;27.30;65.40;;;;;;5014718;28;20415;-74
2022/07/12 12:38:03;;;;;;;0.67;0.67;;;27.70;64.50;;;;;;5014650;28;20405;-74
2022/07/12 12:40:34;;;;;;;0.80;0.70;;;27.80;64.20;;;;;;5026584;28;20461;-75
2022/07/12 12:43:13;;;;;;;1.33;0.77;;;27.80;64.50;;;;;;5034458;28;20428;-74
2022/07/12 12:45:50;;;;;;;0.87;0.70;;;27.30;64.80;;;;;;5026998;28;20409;-74
2022/07/12 12:48:21;;;;;;;1.63;1.47;;;26.70;65.30;;;;;;5014588;28;20452;-74
2022/07/12 12:50:48;;;;;;;1.00;0.90;;;26.60;65.50;;;;;;5013797;28;21193;-75
2022/07/12 12:53:18;;;;;;;0.90;0.70;;;26.50;67.20;;;;;;5014519;28;20453;-74
2022/07/12 12:55:45;;;;;;;1.00;0.80;;;26.50;67.40;;;;;;5014411;28;20407;-73
2022/07/12 12:58:11;;;;;;;1.63;1.07;;;26.70;67.80;;;;;;5014275;28;20435;-73